ZLXY METAR and TAF | Updated Today

ZLXY METAR

Xi'an Xianyang International Airport

Observation time: 32 min. ago

ZLXY 291100Z 27003MPS CAVOK 28/15 Q1006 NOSIG

Need help? Read our tutorial on how to read METARs or read the parsed version below.

Xi'an Xianyang International Airport (ZLXY) METAR

  • Weather conditions on Sun, 29 May 2022 11:00:00 +0000 (32 min. ago):
  • Present conditions: Dry
  • Clouds: Clear skies
  • Visibility: Greater than 10 km
  • Wind: 270 degrees at 3 knots
  • Temperature: 28 celsius
  • Dew point: 15 celsius
  • Pressure: 1006 millibars
  • Remarks: None


Useful to know...

ZLXY TAF

Xi'an Xianyang International Airport

TAF AMD ZLXY 290824Z 2906/3006 32006G12MPS 5000 HZ NSC TX32/2907Z TN17/2922Z BECMG 2914/2915 03003MPS
Observation time: 3:08 hr. ago
Need help? Read our tutorial on how to read TAFs or read the parsed version below.

Parsed version of TAF for Xi'an Xianyang International Airport (ZLXY)

  • From 29 May at 06:00 UTC, to day 30 of the month at 06:00 UTC
  • Clouds: No significant clouds are observed
  • Visibility: 5000 meters
  • Wind: 320 degrees at 6
  • Other: Haze
  • Expected to arise soon, from 29 May at 14:00 UTC, to day 29 of the month at 15:00 UTC
  • Wind: 30 degrees at 3